Time;durP1;ratioP1;P1;durP2;ratioP2;P2;SDS_P1;SDS_P2;PMS_P1;PMS_P2;Temp;Humidity;BMP_temperature;BMP_pressure;BME280_temperature;BME280_humidity;BME280_pressure;Samples;Min_cycle;Max_cycle;Signal;HPM_P1;HPM_P2
2022/12/29 00:01:47;;;;;;;0.90;0.60;;;10.30;99.90;;;;;;5062768;28;20668;-81
2022/12/29 00:04:14;;;;;;;0.77;0.60;;;10.10;99.90;;;;;;5049924;28;20203;-81
2022/12/29 00:06:41;;;;;;;0.80;0.70;;;10.10;99.90;;;;;;5045420;28;20175;-81
2022/12/29 00:09:07;;;;;;;0.70;0.60;;;10.10;99.90;;;;;;5059809;28;20249;-81
2022/12/29 00:11:33;;;;;;;0.87;0.70;;;10.10;99.90;;;;;;5041986;28;20587;-81
2022/12/29 00:16:45;;;;;;;0.70;0.70;;;10.10;99.90;;;;;;5060911;28;20632;-81
2022/12/29 00:35:07;;;;;;;1.90;0.80;;;10.10;99.90;;;;;;5060833;28;20195;-81
2022/12/29 00:36:07;;;;;;;1.37;0.60;;;10.20;99.90;;;;;;5058426;28;20679;-81
2022/12/29 00:44:10;;;;;;;0.80;0.40;;;10.30;99.90;;;;;;5057528;28;20166;-81
2022/12/29 00:46:40;;;;;;;0.70;0.50;;;10.40;99.90;;;;;;5039556;28;20187;-81
2022/12/29 00:51:53;;;;;;;0.50;0.50;;;10.40;99.90;;;;;;5059201;28;20330;-82
2022/12/29 00:54:19;;;;;;;1.37;0.50;;;10.40;99.90;;;;;;5057973;28;20167;-81
2022/12/29 00:56:49;;;;;;;0.63;0.60;;;10.40;99.90;;;;;;5057870;28;20178;-81
2022/12/29 00:59:15;;;;;;;0.43;0.43;;;10.40;99.90;;;;;;5039976;28;20191;-81
2022/12/29 01:01:41;;;;;;;1.63;0.60;;;10.30;99.90;;;;;;5057951;28;20528;-81
2022/12/29 01:04:07;;;;;;;1.17;0.50;;;10.30;99.90;;;;;;5057355;28;20172;-82
2022/12/29 01:06:34;;;;;;;0.53;0.40;;;10.40;99.90;;;;;;5038768;28;20262;-81
2022/12/29 01:11:45;;;;;;;3.90;0.50;;;10.40;99.90;;;;;;5057942;28;20205;-81
2022/12/29 01:14:10;;;;;;;0.47;0.40;;;10.50;99.90;;;;;;5056957;28;20183;-81
2022/12/29 01:16:36;;;;;;;1.80;0.50;;;10.50;99.90;;;;;;5058221;28;20684;-81
2022/12/29 01:19:03;;;;;;;0.40;0.40;;;10.60;99.90;;;;;;5038868;28;20763;-82
2022/12/29 01:21:28;;;;;;;0.40;0.40;;;10.70;99.90;;;;;;5039911;28;20186;-81
2022/12/29 01:23:54;;;;;;;1.27;0.40;;;10.70;99.90;;;;;;5038893;28;20179;-81
2022/12/29 01:26:19;;;;;;;0.53;0.47;;;10.80;99.90;;;;;;5040414;28;20547;-81
2022/12/29 01:28:45;;;;;;;0.30;0.30;;;10.80;99.90;;;;;;5058586;28;20199;-81
2022/12/29 01:31:13;;;;;;;0.40;0.30;;;10.80;99.90;;;;;;5039442;28;20172;-81
2022/12/29 01:33:39;;;;;;;0.40;0.30;;;10.90;99.90;;;;;;5057707;28;20168;-81
2022/12/29 01:36:07;;;;;;;0.63;0.40;;;11.00;99.90;;;;;;5039819;28;20265;-82
2022/12/29 01:38:34;;;;;;;0.30;0.30;;;11.10;99.90;;;;;;5057091;28;20254;-82
2022/12/29 01:41:00;;;;;;;0.87;0.33;;;11.00;99.90;;;;;;5058480;28;20265;-80
2022/12/29 01:44:02;;;;;;;0.23;0.23;;;11.20;99.90;;;;;;5058487;28;20176;-81
2022/12/29 01:46:39;;;;;;;0.27;0.20;;;11.10;99.90;;;;;;4958342;29;20182;-81
2022/12/29 01:49:07;;;;;;;0.27;0.27;;;11.10;99.90;;;;;;5045808;28;20635;-81
2022/12/29 01:51:49;;;;;;;0.40;0.30;;;11.30;99.90;;;;;;5058433;28;20168;-82
2022/12/29 01:54:25;;;;;;;0.83;0.40;;;11.10;99.90;;;;;;5057678;28;20524;-81
2022/12/29 01:56:52;;;;;;;0.57;0.30;;;11.10;99.90;;;;;;5040149;28;20210;-81
2022/12/29 01:59:22;;;;;;;0.30;0.30;;;11.10;99.90;;;;;;5039863;28;20644;-81
2022/12/29 02:01:48;;;;;;;0.50;0.50;;;11.30;99.90;;;;;;5060151;28;20657;-81
2022/12/29 02:04:14;;;;;;;1.07;0.43;;;11.20;99.90;;;;;;5044377;28;20183;-81
2022/12/29 02:07:01;;;;;;;2.00;0.40;;;11.20;99.90;;;;;;5045347;28;20211;-81
2022/12/29 02:09:26;;;;;;;1.70;0.40;;;11.20;99.90;;;;;;5043498;28;20211;-81
2022/12/29 02:11:52;;;;;;;1.10;0.43;;;11.20;99.90;;;;;;5062802;28;20233;-82
2022/12/29 02:14:18;;;;;;;0.47;0.40;;;11.20;99.90;;;;;;5062289;28;20175;-80
2022/12/29 02:17:03;;;;;;;1.37;0.40;;;11.20;99.90;;;;;;5062110;28;20171;-81
2022/12/29 02:19:59;;;;;;;1.87;0.60;;;11.20;99.90;;;;;;5046059;28;20187;-81
2022/12/29 02:22:41;;;;;;;0.53;0.30;;;11.30;99.90;;;;;;5043264;28;20175;-81
2022/12/29 02:25:16;;;;;;;0.33;0.33;;;11.20;99.90;;;;;;5060258;28;20155;-81
2022/12/29 02:27:55;;;;;;;3.23;0.60;;;11.30;99.90;;;;;;5042724;28;20183;-81
2022/12/29 02:30:42;;;;;;;0.73;0.40;;;11.30;99.90;;;;;;5042434;28;20199;-81
2022/12/29 02:33:36;;;;;;;2.87;0.67;;;11.20;99.90;;;;;;5042368;28;20175;-81
2022/12/29 02:36:57;;;;;;;0.50;0.50;;;11.20;99.90;;;;;;5060294;28;20156;-81
2022/12/29 02:40:06;;;;;;;0.70;0.40;;;11.20;99.90;;;;;;5011856;28;20200;-82
2022/12/29 02:42:47;;;;;;;2.40;0.73;;;11.10;99.90;;;;;;5060718;28;20160;-81
2022/12/29 02:45:19;;;;;;;1.43;0.40;;;11.10;99.90;;;;;;5042725;28;20155;-81
2022/12/29 02:47:50;;;;;;;1.47;0.73;;;11.10;99.90;;;;;;5042882;28;20172;-81
2022/12/29 02:50:26;;;;;;;1.30;0.50;;;11.10;99.90;;;;;;5060821;28;20207;-81
2022/12/29 02:52:57;;;;;;;2.63;0.70;;;11.10;99.90;;;;;;5043547;28;20174;-81
2022/12/29 02:55:22;;;;;;;3.67;0.60;;;11.10;99.90;;;;;;5042894;28;20195;-81
2022/12/29 02:57:48;;;;;;;0.73;0.50;;;11.10;99.90;;;;;;5061202;28;20660;-81
2022/12/29 03:00:17;;;;;;;2.07;0.60;;;11.20;99.90;;;;;;5061083;28;20211;-81
2022/12/29 03:03:26;;;;;;;0.80;0.77;;;11.20;99.90;;;;;;5043071;28;20184;-81
2022/12/29 03:06:25;;;;;;;0.80;0.43;;;11.30;99.90;;;;;;5043201;28;20177;-81
2022/12/29 03:09:02;;;;;;;1.53;0.40;;;11.30;99.90;;;;;;5042757;28;20222;-81
2022/12/29 03:17:48;;;;;;;1.23;0.70;;;11.30;99.90;;;;;;5061344;28;20171;-81
2022/12/29 03:20:20;;;;;;;1.33;0.60;;;11.30;99.90;;;;;;5026103;28;20246;-81
2022/12/29 03:22:49;;;;;;;1.30;0.60;;;11.40;99.90;;;;;;5061325;28;20223;-81
2022/12/29 03:25:25;;;;;;;0.57;0.47;;;11.40;99.90;;;;;;5042888;28;20572;-81
2022/12/29 03:28:02;;;;;;;0.53;0.50;;;11.40;99.90;;;;;;5061214;28;20168;-81
2022/12/29 03:30:31;;;;;;;2.20;0.60;;;11.30;99.90;;;;;;5043251;28;20202;-81
2022/12/29 03:33:01;;;;;;;0.83;0.73;;;11.40;99.90;;;;;;5060928;28;20184;-80
2022/12/29 03:35:31;;;;;;;1.20;0.50;;;11.40;99.90;;;;;;5043302;28;20179;-81
2022/12/29 03:38:28;;;;;;;0.73;0.40;;;11.40;99.90;;;;;;5043821;28;20572;-81
2022/12/29 03:40:58;;;;;;;0.60;0.47;;;11.40;99.90;;;;;;5042195;28;20274;-81
2022/12/29 03:43:24;;;;;;;0.40;0.40;;;11.30;99.90;;;;;;5061224;28;20725;-80
2022/12/29 03:45:49;;;;;;;1.33;0.67;;;11.30;99.90;;;;;;5061313;28;20171;-80
2022/12/29 03:48:15;;;;;;;0.63;0.60;;;11.30;99.90;;;;;;5042872;28;20203;-80
2022/12/29 03:50:41;;;;;;;1.77;0.60;;;11.30;99.90;;;;;;5061280;28;20196;-81
2022/12/29 03:53:06;;;;;;;2.03;0.70;;;11.30;99.90;;;;;;5061438;28;20257;-80
2022/12/29 03:55:32;;;;;;;0.47;0.47;;;11.30;99.90;;;;;;5062106;28;20175;-81
2022/12/29 03:57:58;;;;;;;0.60;0.27;;;11.30;99.90;;;;;;5043842;28;20195;-81
2022/12/29 04:00:23;;;;;;;0.57;0.40;;;11.30;99.90;;;;;;5043772;28;20196;-80
2022/12/29 04:02:49;;;;;;;1.57;0.40;;;11.30;99.90;;;;;;5062040;28;20228;-81
2022/12/29 04:05:14;;;;;;;0.60;0.43;;;11.30;99.90;;;;;;5043931;28;20172;-81
2022/12/29 04:07:40;;;;;;;3.80;0.60;;;11.20;99.90;;;;;;5044342;28;20184;-81
2022/12/29 04:10:05;;;;;;;1.67;0.40;;;11.40;99.90;;;;;;5067357;28;20211;-81
2022/12/29 04:12:31;;;;;;;1.50;0.40;;;11.40;99.90;;;;;;5053500;28;20195;-81
2022/12/29 04:14:56;;;;;;;0.67;0.30;;;11.40;99.90;;;;;;5070590;28;20175;-81
2022/12/29 04:17:22;;;;;;;2.40;0.70;;;11.40;99.90;;;;;;5059670;28;20561;-81
2022/12/29 04:19:48;;;;;;;0.80;0.50;;;11.40;99.90;;;;;;5057863;28;20204;-81
2022/12/29 04:22:13;;;;;;;1.30;0.40;;;11.40;99.90;;;;;;5040302;28;20253;-81
2022/12/29 04:24:39;;;;;;;3.53;0.50;;;11.40;99.90;;;;;;5040257;28;20720;-81
2022/12/29 04:27:05;;;;;;;0.77;0.60;;;11.40;99.90;;;;;;5058544;28;20172;-81
2022/12/29 04:29:30;;;;;;;1.00;0.40;;;11.50;99.90;;;;;;5041917;28;20560;-81
2022/12/29 04:31:56;;;;;;;2.43;0.50;;;11.70;99.90;;;;;;5059632;28;20672;-81
2022/12/29 04:34:21;;;;;;;1.20;0.60;;;11.60;99.90;;;;;;5068236;28;20175;-81
2022/12/29 04:36:47;;;;;;;0.87;0.43;;;11.60;99.90;;;;;;5069741;28;20180;-81
2022/12/29 04:39:12;;;;;;;3.33;0.60;;;11.60;99.90;;;;;;5054283;28;20195;-81
2022/12/29 04:41:38;;;;;;;1.17;0.40;;;11.80;99.90;;;;;;5045207;28;20739;-81
2022/12/29 04:44:04;;;;;;;0.73;0.40;;;11.70;99.90;;;;;;5056945;28;20171;-81
2022/12/29 04:46:29;;;;;;;2.70;0.67;;;11.70;99.90;;;;;;5039628;28;20218;-81
2022/12/29 04:48:55;;;;;;;2.17;0.53;;;11.70;99.90;;;;;;5039115;28;20234;-81
2022/12/29 04:51:20;;;;;;;1.47;0.57;;;11.80;99.90;;;;;;5039052;28;20240;-81
2022/12/29 04:53:46;;;;;;;1.20;0.47;;;11.80;99.90;;;;;;5039345;28;20175;-81
2022/12/29 04:56:11;;;;;;;2.00;0.60;;;11.80;99.90;;;;;;5057739;28;20179;-81
2022/12/29 04:58:37;;;;;;;1.90;0.77;;;11.80;99.90;;;;;;5038972;28;20194;-80
2022/12/29 05:01:03;;;;;;;2.37;0.67;;;11.80;99.90;;;;;;5058264;28;20640;-80
2022/12/29 05:03:28;;;;;;;1.57;0.70;;;11.80;99.90;;;;;;5058180;28;20205;-80
2022/12/29 05:05:55;;;;;;;1.37;0.50;;;11.80;99.90;;;;;;5058742;28;20199;-80
2022/12/29 05:08:21;;;;;;;2.17;0.60;;;11.90;99.90;;;;;;5057455;28;20210;-80
2022/12/29 05:10:46;;;;;;;1.33;0.40;;;11.90;99.90;;;;;;5057971;28;20206;-80
2022/12/29 05:13:12;;;;;;;0.97;0.70;;;11.80;99.90;;;;;;5039726;28;20246;-80
2022/12/29 05:15:37;;;;;;;1.17;0.50;;;11.90;99.90;;;;;;5058004;28;20163;-81
2022/12/29 05:18:03;;;;;;;1.47;0.67;;;11.80;99.90;;;;;;5057886;28;20179;-81
2022/12/29 05:20:29;;;;;;;0.63;0.47;;;11.80;99.90;;;;;;5058123;28;20241;-81
2022/12/29 05:22:54;;;;;;;2.80;0.60;;;11.80;99.90;;;;;;5058822;28;20175;-80
2022/12/29 05:25:20;;;;;;;1.10;0.30;;;11.80;99.90;;;;;;5040618;28;20229;-80
2022/12/29 05:27:45;;;;;;;3.17;0.80;;;11.90;99.90;;;;;;5057853;28;20168;-80
2022/12/29 05:30:11;;;;;;;1.70;0.40;;;12.20;99.90;;;;;;5058294;28;20296;-79
2022/12/29 05:32:37;;;;;;;3.20;0.50;;;12.20;99.90;;;;;;5058252;28;20176;-79
2022/12/29 05:35:03;;;;;;;0.80;0.60;;;12.10;99.90;;;;;;5058309;28;20521;-80
2022/12/29 05:37:28;;;;;;;2.60;0.60;;;12.00;99.90;;;;;;5061851;28;20176;-80
2022/12/29 05:39:54;;;;;;;2.13;0.50;;;11.90;99.90;;;;;;5044044;28;20200;-80
2022/12/29 05:42:19;;;;;;;1.13;0.60;;;11.80;99.90;;;;;;5044703;28;20176;-80
2022/12/29 05:44:45;;;;;;;1.80;0.80;;;11.70;99.90;;;;;;5064298;28;20179;-79
2022/12/29 05:47:10;;;;;;;1.33;0.60;;;11.60;99.90;;;;;;5064995;28;20179;-79
2022/12/29 05:49:36;;;;;;;4.20;0.80;;;11.60;99.90;;;;;;5064551;28;20219;-79
2022/12/29 05:52:01;;;;;;;0.70;0.50;;;11.40;99.90;;;;;;5064609;28;20207;-79
2022/12/29 05:54:27;;;;;;;1.20;0.60;;;11.30;99.90;;;;;;5064012;28;20326;-80
2022/12/29 05:56:52;;;;;;;1.07;0.50;;;11.20;99.90;;;;;;5064138;28;20274;-80
2022/12/29 05:59:18;;;;;;;1.53;0.50;;;11.20;99.90;;;;;;5043619;28;20204;-80
2022/12/29 06:01:43;;;;;;;1.70;0.67;;;11.20;99.90;;;;;;5043021;28;20175;-80
2022/12/29 06:04:09;;;;;;;1.17;0.50;;;11.10;99.90;;;;;;5044738;28;20199;-79
2022/12/29 06:06:35;;;;;;;2.63;0.90;;;11.10;99.90;;;;;;5063859;28;20179;-80
2022/12/29 06:09:00;;;;;;;2.43;0.77;;;11.10;99.90;;;;;;5063077;28;20599;-80
2022/12/29 06:11:26;;;;;;;3.40;0.70;;;11.10;99.90;;;;;;5043792;28;20187;-80
2022/12/29 06:13:51;;;;;;;1.23;0.60;;;11.20;99.90;;;;;;5044529;28;20179;-80
2022/12/29 06:16:17;;;;;;;2.10;0.87;;;11.10;99.90;;;;;;5063542;28;20183;-79
2022/12/29 06:18:42;;;;;;;1.90;0.70;;;11.00;99.90;;;;;;5062799;28;20235;-80
2022/12/29 06:21:08;;;;;;;1.37;0.67;;;11.10;99.90;;;;;;5043350;28;20239;-80
2022/12/29 06:23:33;;;;;;;1.57;0.77;;;11.10;99.90;;;;;;5061640;28;20241;-79
2022/12/29 06:25:59;;;;;;;1.63;0.70;;;11.20;99.90;;;;;;5061481;28;20184;-80
2022/12/29 06:28:24;;;;;;;2.13;0.90;;;11.40;99.90;;;;;;5061336;28;20203;-81
2022/12/29 06:30:50;;;;;;;4.07;0.70;;;11.20;99.90;;;;;;5062036;28;20183;-80
2022/12/29 06:33:16;;;;;;;2.83;0.57;;;11.30;99.90;;;;;;5062904;28;20176;-80
2022/12/29 06:35:42;;;;;;;3.37;0.80;;;11.30;99.90;;;;;;5045093;28;20172;-79
2022/12/29 06:38:08;;;;;;;4.53;0.70;;;11.40;99.90;;;;;;5063317;28;20263;-80
2022/12/29 06:40:33;;;;;;;1.87;0.50;;;11.50;99.90;;;;;;5061670;28;20242;-79
2022/12/29 06:42:59;;;;;;;1.30;0.40;;;11.50;99.90;;;;;;5044084;28;20175;-80
2022/12/29 06:45:24;;;;;;;1.87;0.50;;;11.50;99.90;;;;;;5060623;28;20171;-80
2022/12/29 06:47:50;;;;;;;1.00;0.50;;;11.50;99.90;;;;;;5060316;28;20176;-79
2022/12/29 06:50:15;;;;;;;1.20;0.70;;;11.50;99.90;;;;;;5041456;28;20215;-80
2022/12/29 06:52:41;;;;;;;4.07;0.90;;;11.60;99.90;;;;;;5060930;28;20636;-82
2022/12/29 06:55:07;;;;;;;2.53;0.60;;;11.50;99.90;;;;;;5041868;28;20195;-82
2022/12/29 06:57:33;;;;;;;4.43;0.70;;;11.50;99.90;;;;;;5041605;28;20274;-83
2022/12/29 06:59:58;;;;;;;4.33;0.80;;;11.40;99.90;;;;;;5043894;28;20211;-81
2022/12/29 07:02:26;;;;;;;5.13;0.80;;;11.40;99.90;;;;;;5046300;28;20175;-81
2022/12/29 07:04:52;;;;;;;1.33;0.70;;;11.40;99.90;;;;;;5062657;28;20259;-84
2022/12/29 07:07:19;;;;;;;3.83;1.00;;;11.40;99.90;;;;;;5043221;28;20677;-83
2022/12/29 07:09:44;;;;;;;3.03;0.80;;;11.40;99.90;;;;;;5062497;28;20286;-83
2022/12/29 07:12:10;;;;;;;0.87;0.37;;;11.40;99.90;;;;;;5044736;28;20214;-83
2022/12/29 07:14:36;;;;;;;1.47;0.47;;;11.30;99.90;;;;;;5044184;28;20184;-81
2022/12/29 07:17:05;;;;;;;2.17;0.67;;;11.30;99.90;;;;;;5062940;28;20198;-83
2022/12/29 07:19:30;;;;;;;0.97;0.50;;;11.40;99.90;;;;;;5044683;28;20693;-83
2022/12/29 07:21:56;;;;;;;3.23;0.90;;;11.30;99.90;;;;;;5045363;28;20171;-82
2022/12/29 07:24:22;;;;;;;2.17;1.30;;;11.30;99.90;;;;;;5044731;28;20186;-83
2022/12/29 07:26:47;;;;;;;6.70;0.97;;;11.30;99.90;;;;;;5045419;28;20202;-82
2022/12/29 07:29:13;;;;;;;3.60;0.70;;;11.20;99.90;;;;;;5063974;28;20697;-82
2022/12/29 07:31:38;;;;;;;3.10;0.90;;;11.20;99.90;;;;;;5065186;28;20194;-83
2022/12/29 07:34:04;;;;;;;1.67;0.63;;;11.30;99.90;;;;;;5046673;28;20164;-82
2022/12/29 07:36:29;;;;;;;2.40;0.60;;;11.40;99.90;;;;;;5064172;28;20179;-83
2022/12/29 07:38:55;;;;;;;4.70;0.70;;;11.40;99.90;;;;;;5063927;28;20200;-82
2022/12/29 07:41:21;;;;;;;1.93;0.80;;;11.40;99.90;;;;;;5061913;28;20215;-82
2022/12/29 07:43:48;;;;;;;4.23;1.03;;;11.40;99.90;;;;;;5039974;28;20187;-82
2022/12/29 07:46:14;;;;;;;3.23;0.90;;;11.40;99.90;;;;;;5059026;28;20175;-82
2022/12/29 07:48:39;;;;;;;3.63;0.80;;;11.40;99.90;;;;;;5059314;28;20203;-82
2022/12/29 07:51:05;;;;;;;2.43;0.70;;;11.40;99.90;;;;;;5045119;28;20263;-83
2022/12/29 07:53:30;;;;;;;3.20;0.90;;;11.40;99.90;;;;;;5042346;28;20171;-82
2022/12/29 07:55:56;;;;;;;1.40;0.50;;;11.40;99.90;;;;;;5068400;28;20171;-82
2022/12/29 07:58:21;;;;;;;3.63;0.87;;;11.40;99.90;;;;;;5071539;28;20219;-85
2022/12/29 08:00:47;;;;;;;9.10;0.93;;;11.30;99.90;;;;;;5054556;28;20219;-84
2022/12/29 08:03:12;;;;;;;5.47;1.00;;;11.30;99.90;;;;;;5049709;28;20190;-84
2022/12/29 08:05:38;;;;;;;3.57;1.20;;;11.30;99.90;;;;;;5042884;28;20183;-85
2022/12/29 08:08:04;;;;;;;1.83;0.80;;;11.30;99.90;;;;;;5041990;28;20175;-85
2022/12/29 08:10:29;;;;;;;2.70;0.90;;;11.30;99.90;;;;;;5040787;28;20576;-84
2022/12/29 08:12:55;;;;;;;3.13;0.90;;;11.30;99.90;;;;;;5039671;28;20179;-83
2022/12/29 08:15:20;;;;;;;6.40;1.10;;;11.30;99.90;;;;;;5041418;28;20182;-84
2022/12/29 08:17:46;;;;;;;1.80;0.70;;;11.20;99.90;;;;;;5042219;28;20175;-84
2022/12/29 08:20:11;;;;;;;5.80;1.00;;;11.20;99.90;;;;;;5059636;28;20204;-83
2022/12/29 08:22:37;;;;;;;2.97;0.83;;;11.20;99.90;;;;;;5040784;28;20258;-84
2022/12/29 08:25:03;;;;;;;1.80;0.70;;;11.30;99.90;;;;;;5058405;28;20175;-84
2022/12/29 08:27:29;;;;;;;2.27;0.87;;;11.30;99.90;;;;;;5040304;28;20231;-84
2022/12/29 08:29:54;;;;;;;5.80;1.03;;;11.30;99.90;;;;;;5040827;28;20211;-83
2022/12/29 08:32:20;;;;;;;1.47;0.70;;;11.30;99.90;;;;;;5057919;28;20175;-84
2022/12/29 08:34:45;;;;;;;5.10;0.97;;;11.30;99.90;;;;;;5038709;28;20182;-83
2022/12/29 08:37:11;;;;;;;4.60;1.07;;;11.30;99.90;;;;;;5038525;28;20180;-82
2022/12/29 08:39:36;;;;;;;5.67;0.80;;;11.30;99.90;;;;;;5038261;28;20200;-82
2022/12/29 08:42:02;;;;;;;2.23;1.07;;;11.30;99.90;;;;;;5037943;28;20205;-82
2022/12/29 08:44:27;;;;;;;5.63;0.97;;;11.30;99.90;;;;;;5038370;28;20580;-83
2022/12/29 08:46:53;;;;;;;6.53;1.03;;;11.40;99.90;;;;;;5038595;28;20759;-80
2022/12/29 08:49:18;;;;;;;5.33;1.03;;;11.40;99.90;;;;;;5056611;28;20226;-80
2022/12/29 08:51:44;;;;;;;4.60;1.00;;;11.40;99.90;;;;;;5037876;28;20171;-80
2022/12/29 08:54:09;;;;;;;3.07;0.90;;;11.40;99.90;;;;;;5056178;28;20172;-85
2022/12/29 08:56:35;;;;;;;2.97;0.80;;;11.30;99.90;;;;;;5040055;28;20191;-83
2022/12/29 08:59:01;;;;;;;3.63;1.13;;;11.10;99.90;;;;;;5058099;28;20215;-82
2022/12/29 09:01:26;;;;;;;1.93;0.80;;;11.20;99.90;;;;;;5040108;28;20202;-83
2022/12/29 09:03:53;;;;;;;3.53;0.83;;;11.10;99.90;;;;;;5040508;28;20190;-84
2022/12/29 09:06:18;;;;;;;3.17;1.20;;;11.00;99.90;;;;;;5040849;28;20214;-84
2022/12/29 09:08:44;;;;;;;2.63;1.03;;;11.00;99.90;;;;;;5059816;28;20217;-84
2022/12/29 09:11:17;;;;;;;4.07;1.13;;;10.90;99.90;;;;;;5041156;28;20172;-84
2022/12/29 09:13:43;;;;;;;3.63;0.70;;;10.90;99.90;;;;;;5056818;28;20171;-84
2022/12/29 09:16:08;;;;;;;5.17;0.90;;;11.10;99.90;;;;;;5039721;28;20182;-84
2022/12/29 09:18:34;;;;;;;6.77;1.70;;;11.10;99.90;;;;;;5039162;28;20175;-84
2022/12/29 09:21:01;;;;;;;5.17;1.20;;;11.00;99.90;;;;;;5056458;28;20582;-82
2022/12/29 09:23:27;;;;;;;5.43;1.00;;;11.10;99.90;;;;;;5038289;28;20179;-83
2022/12/29 09:25:54;;;;;;;4.70;1.17;;;11.10;99.90;;;;;;5056559;28;20190;-80
2022/12/29 09:28:20;;;;;;;3.83;0.80;;;11.10;99.90;;;;;;5056269;28;20198;-83
2022/12/29 09:30:46;;;;;;;4.33;1.30;;;11.10;99.90;;;;;;5055758;28;20568;-83
2022/12/29 09:33:11;;;;;;;7.17;0.90;;;11.20;99.90;;;;;;5037774;28;20191;-82
2022/12/29 09:35:37;;;;;;;4.53;1.00;;;11.20;99.90;;;;;;5055794;28;20176;-82
2022/12/29 09:38:02;;;;;;;3.17;1.07;;;11.20;99.90;;;;;;5056024;28;20179;-83
2022/12/29 09:40:33;;;;;;;8.07;1.17;;;11.20;99.90;;;;;;5055672;28;20199;-81
2022/12/29 09:43:42;;;;;;;3.23;0.80;;;11.20;99.90;;;;;;5056218;28;20180;-82
2022/12/29 09:46:33;;;;;;;2.80;0.90;;;11.30;99.90;;;;;;5022361;28;20195;-82
2022/12/29 09:49:05;;;;;;;3.67;1.10;;;11.20;99.90;;;;;;5055550;28;20208;-82
2022/12/29 09:51:32;;;;;;;4.07;1.17;;;11.30;99.90;;;;;;5037606;28;20262;-82
2022/12/29 09:54:03;;;;;;;10.53;1.37;;;11.30;99.90;;;;;;5055465;28;20211;-82
2022/12/29 09:56:28;;;;;;;5.30;1.20;;;11.30;99.90;;;;;;5038051;28;20582;-83
2022/12/29 09:59:13;;;;;;;3.37;0.90;;;11.30;99.90;;;;;;5037701;28;20265;-83
2022/12/29 10:01:53;;;;;;;1.07;0.70;;;11.30;99.90;;;;;;5037620;28;20175;-82
2022/12/29 10:04:19;;;;;;;6.33;1.50;;;11.40;99.90;;;;;;5055956;28;20160;-83
2022/12/29 10:06:50;;;;;;;4.93;1.40;;;11.40;99.90;;;;;;5055412;28;20267;-82
2022/12/29 10:09:54;;;;;;;5.97;1.33;;;11.40;99.90;;;;;;5055171;28;20218;-83
2022/12/29 10:12:46;;;;;;;5.90;1.23;;;11.40;99.90;;;;;;4967009;28;20651;-83
2022/12/29 10:15:28;;;;;;;2.40;1.00;;;11.40;99.90;;;;;;5037562;28;20182;-83
2022/12/29 10:18:16;;;;;;;4.07;1.00;;;11.40;99.90;;;;;;5056044;28;20163;-83
2022/12/29 10:20:53;;;;;;;4.07;0.93;;;11.40;99.90;;;;;;5037366;28;20199;-84
2022/12/29 10:23:28;;;;;;;6.60;1.20;;;11.50;99.90;;;;;;5040692;28;20225;-83
2022/12/29 10:25:58;;;;;;;4.03;1.00;;;11.50;99.90;;;;;;5059621;28;20178;-83
2022/12/29 10:28:47;;;;;;;4.77;1.37;;;11.50;99.90;;;;;;5059309;28;20166;-84
2022/12/29 10:31:23;;;;;;;3.33;0.93;;;11.60;53.20;;;;;;5058515;28;20251;-83
2022/12/29 10:33:55;;;;;;;3.53;1.00;;;11.60;1.00;;;;;;5041295;28;20167;-83
2022/12/29 10:36:28;;;;;;;4.77;1.10;;;11.60;1.00;;;;;;5041517;28;20259;-83
2022/12/29 10:39:05;;;;;;;3.57;1.17;;;11.60;99.90;;;;;;5059101;28;20573;-84
2022/12/29 10:41:41;;;;;;;5.90;1.03;;;11.70;1.00;;;;;;5060015;28;20164;-84
2022/12/29 10:44:12;;;;;;;4.77;1.13;;;11.70;1.00;;;;;;5059547;28;20170;-84
2022/12/29 10:46:38;;;;;;;4.07;0.93;;;11.60;1.00;;;;;;5042200;28;20259;-84
2022/12/29 10:49:05;;;;;;;6.40;1.50;;;11.60;27.80;;;;;;5041408;28;20246;-84
2022/12/29 10:51:36;;;;;;;3.97;1.23;;;11.60;99.90;;;;;;5059584;28;20171;-84
2022/12/29 10:54:23;;;;;;;5.13;1.20;;;11.60;99.90;;;;;;5059635;28;20172;-84
2022/12/29 10:56:56;;;;;;;4.87;1.10;;;11.60;99.90;;;;;;5041818;28;20553;-83
2022/12/29 10:59:28;;;;;;;3.40;1.33;;;11.60;99.90;;;;;;5041778;28;20206;-85
2022/12/29 11:02:11;;;;;;;4.83;1.13;;;11.60;99.90;;;;;;5041528;28;20657;-85
2022/12/29 11:05:01;;;;;;;5.93;1.13;;;11.60;99.90;;;;;;5058991;28;20170;-85
2022/12/29 11:07:28;;;;;;;6.33;1.20;;;11.60;1.00;;;;;;5060096;28;20160;-84
2022/12/29 11:09:54;;;;;;;4.40;1.40;;;11.70;99.90;;;;;;5060769;28;20340;-84
2022/12/29 11:12:27;;;;;;;4.60;1.10;;;11.70;99.90;;;;;;5043092;28;20228;-79
2022/12/29 11:15:07;;;;;;;5.73;1.17;;;11.70;1.00;;;;;;5045077;28;20172;-79
2022/12/29 11:17:56;;;;;;;7.83;1.67;;;11.70;1.00;;;;;;5047635;28;20172;-78
2022/12/29 11:20:29;;;;;;;4.30;1.10;;;11.70;1.00;;;;;;5047877;28;20199;-79
2022/12/29 11:22:55;;;;;;;5.60;1.10;;;11.70;1.00;;;;;;5048561;28;20529;-78
2022/12/29 11:25:20;;;;;;;4.43;1.07;;;11.70;99.90;;;;;;5069144;28;20187;-79
2022/12/29 11:28:21;;;;;;;4.13;1.00;;;11.70;1.00;;;;;;5066998;28;20710;-78
2022/12/29 11:30:59;;;;;;;13.63;1.53;;;11.70;1.00;;;;;;4946839;29;20751;-78
2022/12/29 11:33:28;;;;;;;6.43;1.00;;;11.70;1.00;;;;;;5034548;28;20186;-79
2022/12/29 11:35:57;;;;;;;4.40;1.20;;;11.70;99.90;;;;;;5044393;28;20168;-79
2022/12/29 11:38:32;;;;;;;5.13;1.20;;;11.70;99.90;;;;;;5061210;28;20179;-83
2022/12/29 11:40:58;;;;;;;9.10;1.20;;;11.70;98.50;;;;;;5043957;28;20167;-82
2022/12/29 11:43:33;;;;;;;9.67;1.67;;;11.70;1.00;;;;;;5044719;28;20168;-83
2022/12/29 11:46:00;;;;;;;4.77;1.10;;;11.70;99.90;;;;;;5068502;28;20148;-82
2022/12/29 11:48:31;;;;;;;5.10;1.00;;;11.70;1.00;;;;;;5054334;28;20175;-84
2022/12/29 11:51:01;;;;;;;5.10;1.47;;;11.70;1.00;;;;;;5053932;28;20199;-83
2022/12/29 11:53:36;;;;;;;7.23;1.20;;;11.70;1.00;;;;;;5040415;28;20168;-81
2022/12/29 11:56:08;;;;;;;5.13;1.17;;;11.70;1.00;;;;;;5040469;28;20183;-83
2022/12/29 11:58:36;;;;;;;5.43;1.30;;;11.70;1.00;;;;;;5039637;28;20286;-82
2022/12/29 12:01:20;;;;;;;6.70;1.33;;;11.70;1.00;;;;;;5039777;28;20247;-82
2022/12/29 12:03:57;;;;;;;10.37;1.70;;;11.70;1.00;;;;;;5039375;28;20168;-83
2022/12/29 12:06:24;;;;;;;5.40;1.27;;;11.70;1.00;;;;;;5039087;28;20175;-82
2022/12/29 12:09:05;;;;;;;3.93;1.20;;;11.80;1.00;;;;;;5038899;28;20599;-82
2022/12/29 12:11:37;;;;;;;5.33;1.60;;;11.70;99.90;;;;;;5056998;28;20191;-82
2022/12/29 12:14:17;;;;;;;5.17;0.90;;;11.70;1.00;;;;;;5039106;28;20187;-82
2022/12/29 12:16:45;;;;;;;6.60;1.27;;;11.70;26.70;;;;;;5038853;28;20695;-83
2022/12/29 12:19:38;;;;;;;7.20;1.10;;;11.70;1.00;;;;;;5056582;28;20195;-82
2022/12/29 12:22:15;;;;;;;5.27;1.57;;;11.70;1.00;;;;;;5039083;28;20682;-81
2022/12/29 12:25:20;;;;;;;8.37;1.30;;;11.70;1.10;;;;;;5039839;28;20620;-82
2022/12/29 12:28:11;;;;;;;5.30;1.30;;;11.60;98.00;;;;;;4999833;28;20179;-82
2022/12/29 12:30:41;;;;;;;7.57;1.50;;;11.60;1.00;;;;;;5038173;28;20207;-82
2022/12/29 12:33:16;;;;;;;4.20;0.87;;;11.60;1.00;;;;;;5039082;28;20536;-79
2022/12/29 12:36:16;;;;;;;4.13;1.13;;;11.60;99.90;;;;;;5058399;28;20148;-78
2022/12/29 12:38:59;;;;;;;5.50;1.37;;;11.60;99.90;;;;;;5055395;28;20159;-78
2022/12/29 12:41:46;;;;;;;2.77;0.83;;;11.70;72.70;;;;;;5037069;28;20712;-78
2022/12/29 12:44:46;;;;;;;4.93;0.93;;;11.50;99.90;;;;;;5056591;28;20175;-78
2022/12/29 12:47:15;;;;;;;4.73;1.27;;;11.60;73.50;;;;;;5054878;28;20249;-78
2022/12/29 12:50:12;;;;;;;4.47;1.33;;;11.50;14.90;;;;;;5037736;28;20605;-78
2022/12/29 12:53:19;;;;;;;4.60;1.43;;;11.60;44.10;;;;;;5049693;28;20198;-78
2022/12/29 12:56:08;;;;;;;9.60;1.70;;;11.50;99.90;;;;;;5037228;28;20270;-78
2022/12/29 12:58:53;;;;;;;5.33;0.97;;;11.50;99.90;;;;;;5008858;28;20214;-78
2022/12/29 13:01:37;;;;;;;3.80;1.63;;;11.50;99.90;;;;;;5054040;28;20210;-77
2022/12/29 13:04:34;;;;;;;7.70;1.27;;;11.50;99.90;;;;;;5053120;28;20164;-77
2022/12/29 13:07:40;;;;;;;6.40;1.33;;;11.50;99.90;;;;;;5053086;28;20625;-78
2022/12/29 13:10:35;;;;;;;5.63;1.30;;;11.50;99.90;;;;;;5057179;28;20214;-78
2022/12/29 13:13:23;;;;;;;10.83;1.00;;;11.50;99.90;;;;;;5057969;28;20163;-79
2022/12/29 13:16:05;;;;;;;6.33;1.40;;;11.50;99.90;;;;;;5057843;28;20231;-79
2022/12/29 13:18:52;;;;;;;6.80;1.23;;;11.50;99.90;;;;;;5058492;28;20152;-79
2022/12/29 13:21:42;;;;;;;4.47;1.20;;;11.40;99.90;;;;;;5040068;28;20171;-78
2022/12/29 13:24:19;;;;;;;9.10;1.10;;;11.40;99.90;;;;;;5039960;28;20186;-78
2022/12/29 13:26:54;;;;;;;7.07;1.50;;;11.40;99.90;;;;;;5039990;28;20168;-79
2022/12/29 13:29:27;;;;;;;4.57;1.03;;;11.30;99.90;;;;;;5058079;28;20210;-79
2022/12/29 13:32:27;;;;;;;5.33;1.20;;;11.30;99.90;;;;;;5040763;28;20155;-79
2022/12/29 13:35:16;;;;;;;3.73;0.90;;;11.30;99.90;;;;;;5040374;28;20187;-78
2022/12/29 13:38:16;;;;;;;9.00;1.23;;;11.20;99.90;;;;;;5039680;28;20560;-80
2022/12/29 13:40:46;;;;;;;3.20;0.73;;;11.20;99.90;;;;;;5046653;28;20268;-80
2022/12/29 13:43:13;;;;;;;3.80;1.00;;;11.10;99.90;;;;;;5038411;28;20847;-80
2022/12/29 13:45:41;;;;;;;7.10;1.53;;;11.10;99.90;;;;;;5036742;28;20230;-79